Daisinmaru No.11 — JK5352 — position and weather

sailwx.info

Track history (hours):
 
Tides and Currents Weather Stations Pressure Air Temp Water Temp Dewpoint Dewpoint Depression Visibility Wind Speed Wind Dir Waves Ship Positions

Daisinmaru No.11

Last reported at 2014-Oct-31 07:16 UTC. Time now 2014-Oct-31 14:22 UTC.
Position N 35°28' E 139°53'.

Length 52 m; draft 5.2 m.

Type: Cargo ship. MMSI: 431000667.

Date/timePositionNaut miles runAvg speedWind from/ knotsBaromVisibWave heightAir tempDewpointWater temp
2014-Oct-31 07:16N 35°28' E 139°53'6 9.0
2014-Oct-31 06:33N 35°27' E 139°45'5 5.2
2014-Oct-31 05:33N 35°28' E 139°39'0 0.0
2014-Oct-31 04:33N 35°28' E 139°39'0 0.0
2014-Oct-31 03:33N 35°28' E 139°39'0 0.0
2014-Oct-31 02:33N 35°28' E 139°39'0 0.0
2014-Oct-31 01:33N 35°28' E 139°39'0 0.0
2014-Oct-31 00:33N 35°28' E 139°39'0 0.0
2014-Oct-30 23:33N 35°28' E 139°39'1 0.7
2014-Oct-30 22:33N 35°28' E 139°40'9 8.8
2014-Oct-30 21:32N 35°30' E 139°51'1 0.1
2014-Oct-30 02:24N 35°31' E 139°51'7 8.3
2014-Oct-30 01:34N 35°29' E 139°43'0 0.0
2014-Oct-30 00:34N 35°29' E 139°43'0 0.0
2014-Oct-29 23:34N 35°29' E 139°43'5 4.5
2014-Oct-29 22:34N 35°30' E 139°48'8 8.0
2014-Oct-29 21:33N 35°29' E 139°58'11 0.5
2014-Oct-29 01:33N 35°30' E 139°45'2 1.8
2014-Oct-29 00:33N 35°29' E 139°43'0 0.0
2014-Oct-28 23:33N 35°29' E 139°43'3 2.5
2014-Oct-28 22:33N 35°30' E 139°45'10 9.2
2014-Oct-28 21:30N 35°29' E 139°57'9 0.5
2014-Oct-28 02:06N 35°30' E 139°46'3 5.0
2014-Oct-28 01:33N 35°29' E 139°43'0 0.0
2014-Oct-28 00:33N 35°29' E 139°43'0 0.0
2014-Oct-27 23:34N 35°29' E 139°43'6 5.6
2014-Oct-27 22:33N 35°30' E 139°50'6 0.4
2014-Oct-27 09:23N 35°28' E 139°56'8 9.6
2014-Oct-27 08:33N 35°27' E 139°47'6 5.8
2014-Oct-27 07:33N 35°28' E 139°40'1 0.2
2014-Oct-27 04:33N 35°28' E 139°39'0 0.0
2014-Oct-27 03:33N 35°28' E 139°39'0 0.0
2014-Oct-27 02:33N 35°28' E 139°39'0 0.0
2014-Oct-27 01:33N 35°28' E 139°39'0 0.0
2014-Oct-27 00:34N 35°28' E 139°39'0 0.0
2014-Oct-26 23:33N 35°28' E 139°39'2 1.8
2014-Oct-26 22:33N 35°27' E 139°41'9 9.5
2014-Oct-26 21:33N 35°30' E 139°52'1 0.0
2014-Oct-25 02:32N 35°31' E 139°52'7 7.5
2014-Oct-25 01:33N 35°29' E 139°43'0 0.0
2014-Oct-25 00:34N 35°29' E 139°43'0 0.0
2014-Oct-24 23:33N 35°29' E 139°43'4 3.9
2014-Oct-24 22:33N 35°30' E 139°47'10 9.7
2014-Oct-24 21:32N 35°33' E 139°59'8 0.2
2014-Oct-23 02:17N 35°30' E 139°50'6 8.6
2014-Oct-23 01:33N 35°29' E 139°43'0 0.1
2014-Oct-23 00:34N 35°29' E 139°43'0 0.0
2014-Oct-22 23:34N 35°29' E 139°43'0 0.0
2014-Oct-22 22:34N 35°29' E 139°43'3 3.4
2014-Oct-22 21:34N 35°30' E 139°47'4 0.2
2014-Oct-22 03:26N 35°28' E 139°51'7 7.7
2014-Oct-22 02:33N 35°27' E 139°43'4 3.8
2014-Oct-22 01:33N 35°28' E 139°39'0 0.0
2014-Oct-22 00:33N 35°28' E 139°39'0 0.0
2014-Oct-21 23:33N 35°28' E 139°39'  
Track history (hours):
 
Tides and Currents Weather Stations Pressure Air Temp Water Temp Dewpoint Dewpoint Depression Visibility Wind Speed Wind Dir Waves Ship Positions

Daisinmaru No.11

Last reported at 2014-Oct-31 07:16 UTC. Time now 2014-Oct-31 14:22 UTC.
Position N 35°28' E 139°53'.

Length 52 m; draft 5.2 m.

Type: Cargo ship. MMSI: 431000667.

Date/timePositionNaut miles runAvg speedWind from/ knotsBaromVisibWave heightAir tempDewpointWater temp
2014-Oct-31 07:16N 35°28' E 139°53'6 9.0
2014-Oct-31 06:33N 35°27' E 139°45'5 5.2
2014-Oct-31 05:33N 35°28' E 139°39'0 0.0
2014-Oct-31 04:33N 35°28' E 139°39'0 0.0
2014-Oct-31 03:33N 35°28' E 139°39'0 0.0
2014-Oct-31 02:33N 35°28' E 139°39'0 0.0
2014-Oct-31 01:33N 35°28' E 139°39'0 0.0
2014-Oct-31 00:33N 35°28' E 139°39'0 0.0
2014-Oct-30 23:33N 35°28' E 139°39'1 0.7
2014-Oct-30 22:33N 35°28' E 139°40'9 8.8
2014-Oct-30 21:32N 35°30' E 139°51'1 0.1
2014-Oct-30 02:24N 35°31' E 139°51'7 8.3
2014-Oct-30 01:34N 35°29' E 139°43'0 0.0
2014-Oct-30 00:34N 35°29' E 139°43'0 0.0
2014-Oct-29 23:34N 35°29' E 139°43'5 4.5
2014-Oct-29 22:34N 35°30' E 139°48'8 8.0
2014-Oct-29 21:33N 35°29' E 139°58'11 0.5
2014-Oct-29 01:33N 35°30' E 139°45'2 1.8
2014-Oct-29 00:33N 35°29' E 139°43'0 0.0
2014-Oct-28 23:33N 35°29' E 139°43'3 2.5
2014-Oct-28 22:33N 35°30' E 139°45'10 9.2
2014-Oct-28 21:30N 35°29' E 139°57'9 0.5
2014-Oct-28 02:06N 35°30' E 139°46'3 5.0
2014-Oct-28 01:33N 35°29' E 139°43'0 0.0
2014-Oct-28 00:33N 35°29' E 139°43'0 0.0
2014-Oct-27 23:34N 35°29' E 139°43'6 5.6
2014-Oct-27 22:33N 35°30' E 139°50'6 0.4
2014-Oct-27 09:23N 35°28' E 139°56'8 9.6
2014-Oct-27 08:33N 35°27' E 139°47'6 5.8
2014-Oct-27 07:33N 35°28' E 139°40'1 0.2
2014-Oct-27 04:33N 35°28' E 139°39'0 0.0
2014-Oct-27 03:33N 35°28' E 139°39'0 0.0
2014-Oct-27 02:33N 35°28' E 139°39'0 0.0
2014-Oct-27 01:33N 35°28' E 139°39'0 0.0
2014-Oct-27 00:34N 35°28' E 139°39'0 0.0
2014-Oct-26 23:33N 35°28' E 139°39'2 1.8
2014-Oct-26 22:33N 35°27' E 139°41'9 9.5
2014-Oct-26 21:33N 35°30' E 139°52'1 0.0
2014-Oct-25 02:32N 35°31' E 139°52'7 7.5
2014-Oct-25 01:33N 35°29' E 139°43'0 0.0
2014-Oct-25 00:34N 35°29' E 139°43'0 0.0
2014-Oct-24 23:33N 35°29' E 139°43'4 3.9
2014-Oct-24 22:33N 35°30' E 139°47'10 9.7
2014-Oct-24 21:32N 35°33' E 139°59'8 0.2
2014-Oct-23 02:17N 35°30' E 139°50'6 8.6
2014-Oct-23 01:33N 35°29' E 139°43'0 0.1
2014-Oct-23 00:34N 35°29' E 139°43'0 0.0
2014-Oct-22 23:34N 35°29' E 139°43'0 0.0
2014-Oct-22 22:34N 35°29' E 139°43'3 3.4
2014-Oct-22 21:34N 35°30' E 139°47'4 0.2
2014-Oct-22 03:26N 35°28' E 139°51'7 7.7
2014-Oct-22 02:33N 35°27' E 139°43'4 3.8
2014-Oct-22 01:33N 35°28' E 139°39'0 0.0
2014-Oct-22 00:33N 35°28' E 139°39'0 0.0
2014-Oct-21 23:33N 35°28' E 139°39'  

Dump ship's entire track history